Time;durP1;ratioP1;P1;durP2;ratioP2;P2;SDS_P1;SDS_P2;PMS_P1;PMS_P2;Temp;Humidity;BMP_temperature;BMP_pressure;BME280_temperature;BME280_humidity;BME280_pressure;Samples;Min_cycle;Max_cycle;Signal;HPM_P1;HPM_P2
2023/06/22 00:01:48;;;;;;;17.88;13.93;;;19.30;99.90;;;;;;5070869;28;20452;-60
2023/06/22 00:04:14;;;;;;;19.83;14.40;;;19.10;99.90;;;;;;5069996;28;20040;-60
2023/06/22 00:06:39;;;;;;;13.13;11.68;;;19.10;99.90;;;;;;5071340;28;20568;-61
2023/06/22 00:09:06;;;;;;;15.43;13.63;;;19.10;99.90;;;;;;5071183;28;20033;-60
2023/06/22 00:11:33;;;;;;;18.23;14.77;;;19.10;99.90;;;;;;5064232;28;20044;-60
2023/06/22 00:13:59;;;;;;;19.92;15.00;;;19.10;99.90;;;;;;5074536;28;20103;-60
2023/06/22 00:16:25;;;;;;;18.35;14.73;;;19.00;99.90;;;;;;5074333;28;20044;-60
2023/06/22 00:18:50;;;;;;;16.55;13.05;;;18.80;99.90;;;;;;5074319;28;20398;-60
2023/06/22 00:21:16;;;;;;;16.60;13.95;;;18.80;99.90;;;;;;5074292;28;20086;-59
2023/06/22 00:23:42;;;;;;;16.48;14.18;;;18.90;99.90;;;;;;5073878;28;20083;-59
2023/06/22 00:26:07;;;;;;;17.77;14.55;;;18.80;99.90;;;;;;5074207;28;20056;-60
2023/06/22 00:28:34;;;;;;;14.60;12.25;;;18.70;99.90;;;;;;5074022;28;20036;-60
2023/06/22 00:31:00;;;;;;;17.05;14.43;;;18.80;99.90;;;;;;5072900;28;20111;-60
2023/06/22 00:33:26;;;;;;;16.00;14.30;;;18.80;99.90;;;;;;5074124;28;20039;-60
2023/06/22 00:35:53;;;;;;;15.48;13.88;;;18.80;99.90;;;;;;5073881;28;20048;-60
2023/06/22 00:38:19;;;;;;;16.25;13.15;;;18.70;99.90;;;;;;5093165;28;20044;-60
2023/06/22 00:40:45;;;;;;;20.02;13.82;;;18.70;99.90;;;;;;5055876;28;20045;-60
2023/06/22 00:43:10;;;;;;;15.90;13.80;;;18.70;99.90;;;;;;5059798;28;20044;-60
2023/06/22 00:45:36;;;;;;;15.82;14.13;;;18.60;99.90;;;;;;5070949;28;20064;-61
2023/06/22 00:48:02;;;;;;;13.68;11.45;;;18.60;99.90;;;;;;5062679;28;20032;-60
2023/06/22 00:50:33;;;;;;;18.83;14.65;;;18.50;99.90;;;;;;5073631;28;20062;-60
2023/06/22 00:53:07;;;;;;;16.05;14.40;;;18.50;99.90;;;;;;5073670;28;20498;-60
2023/06/22 00:55:37;;;;;;;17.75;14.02;;;18.40;99.90;;;;;;5059419;28;20364;-60
2023/06/22 00:58:05;;;;;;;17.02;14.30;;;18.60;99.90;;;;;;5073818;28;20037;-60
2023/06/22 01:00:32;;;;;;;14.25;12.82;;;18.60;99.90;;;;;;5073666;28;20036;-60
2023/06/22 01:02:58;;;;;;;18.80;14.77;;;18.60;99.90;;;;;;5073317;28;20033;-60
2023/06/22 01:05:24;;;;;;;15.20;13.32;;;18.60;99.90;;;;;;5055568;28;20097;-60
2023/06/22 01:08:14;;;;;;;18.70;13.18;;;18.50;99.90;;;;;;5073522;28;20025;-60
2023/06/22 01:10:54;;;;;;;15.90;13.13;;;18.50;99.90;;;;;;5073543;28;20120;-60
2023/06/22 01:13:45;;;;;;;17.63;13.00;;;18.50;99.90;;;;;;5073278;28;20514;-60
2023/06/22 01:16:29;;;;;;;17.13;14.68;;;18.50;99.90;;;;;;5073312;28;20143;-60
2023/06/22 01:18:57;;;;;;;21.42;15.52;;;18.50;99.90;;;;;;5073584;28;20089;-60
2023/06/22 01:21:27;;;;;;;19.58;16.13;;;18.40;99.90;;;;;;5072890;28;20509;-60
2023/06/22 01:24:19;;;;;;;18.50;15.63;;;18.50;99.90;;;;;;5073098;28;20051;-61
2023/06/22 01:26:48;;;;;;;19.75;15.15;;;18.50;99.90;;;;;;5073049;28;20052;-60
2023/06/22 01:29:16;;;;;;;19.33;13.98;;;18.30;99.90;;;;;;5073342;28;20040;-61
2023/06/22 01:31:44;;;;;;;17.52;14.55;;;18.30;99.90;;;;;;5071562;28;20517;-60
2023/06/22 01:34:12;;;;;;;14.48;12.50;;;18.20;99.90;;;;;;5073326;28;20454;-60
2023/06/22 01:36:39;;;;;;;14.48;12.57;;;18.30;99.90;;;;;;5072680;28;20040;-60
2023/06/22 01:39:06;;;;;;;14.98;13.35;;;18.30;99.90;;;;;;5073007;28;20155;-60
2023/06/22 01:41:35;;;;;;;18.17;14.60;;;18.20;99.90;;;;;;5072944;28;20120;-60
2023/06/22 01:44:02;;;;;;;16.20;14.48;;;18.30;99.90;;;;;;5072765;28;20115;-60
2023/06/22 01:46:29;;;;;;;17.35;15.27;;;18.20;99.90;;;;;;5060811;28;20040;-60
2023/06/22 01:48:55;;;;;;;16.83;14.45;;;18.20;99.90;;;;;;5070602;28;20037;-60
2023/06/22 01:51:21;;;;;;;16.33;13.63;;;18.20;99.90;;;;;;5072766;28;20066;-60
2023/06/22 01:53:47;;;;;;;16.38;14.13;;;18.20;99.90;;;;;;5072684;28;20055;-60
2023/06/22 01:56:16;;;;;;;19.23;16.48;;;18.30;99.90;;;;;;5072935;28;20083;-60
2023/06/22 01:59:08;;;;;;;18.45;15.65;;;18.20;99.90;;;;;;5072231;28;20043;-60
2023/06/22 02:02:01;;;;;;;21.38;17.77;;;18.20;99.90;;;;;;5072171;28;20036;-60
2023/06/22 02:04:35;;;;;;;25.23;17.25;;;18.10;99.90;;;;;;5072420;28;20044;-60
2023/06/22 02:07:05;;;;;;;19.65;16.77;;;18.10;99.90;;;;;;5072419;28;20040;-60
2023/06/22 02:09:32;;;;;;;23.88;17.40;;;18.10;99.90;;;;;;5072135;28;20040;-60
2023/06/22 02:12:02;;;;;;;17.15;15.35;;;18.10;99.90;;;;;;5071147;28;20052;-60
2023/06/22 02:14:28;;;;;;;18.10;16.15;;;18.00;99.90;;;;;;5072232;28;20040;-60
2023/06/22 02:16:54;;;;;;;18.55;16.65;;;18.10;99.90;;;;;;5072273;28;20048;-60
2023/06/22 02:19:24;;;;;;;17.33;15.50;;;18.20;99.90;;;;;;5072241;28;20142;-60
2023/06/22 02:21:50;;;;;;;19.23;17.15;;;18.10;99.90;;;;;;5071939;28;20028;-60
2023/06/22 02:24:15;;;;;;;16.98;14.88;;;18.20;99.90;;;;;;5071827;28;20562;-60
2023/06/22 02:26:44;;;;;;;20.17;15.80;;;18.10;99.90;;;;;;5071810;28;20040;-60
2023/06/22 02:29:10;;;;;;;19.65;15.70;;;18.10;99.90;;;;;;5071851;28;20053;-60
2023/06/22 02:31:35;;;;;;;17.70;14.18;;;18.20;99.90;;;;;;5071726;28;20033;-60
2023/06/22 02:34:01;;;;;;;15.43;13.82;;;18.10;99.90;;;;;;5071924;28;20477;-60
2023/06/22 02:36:27;;;;;;;18.27;15.43;;;18.00;99.90;;;;;;5071851;28;20040;-60
2023/06/22 02:38:57;;;;;;;19.48;14.70;;;18.10;99.90;;;;;;5071674;28;20474;-60
2023/06/22 02:41:22;;;;;;;16.80;14.10;;;18.20;99.90;;;;;;5070847;28;20040;-60
2023/06/22 02:43:48;;;;;;;17.63;15.13;;;18.00;99.90;;;;;;5070288;28;20051;-60
2023/06/22 02:46:14;;;;;;;19.50;16.95;;;18.10;99.90;;;;;;5061574;28;20372;-60
2023/06/22 02:48:40;;;;;;;17.80;14.52;;;18.00;99.90;;;;;;5067608;28;20494;-61
2023/06/22 02:51:07;;;;;;;19.35;17.17;;;18.00;99.90;;;;;;5071641;28;20424;-60
2023/06/22 02:53:32;;;;;;;21.45;18.40;;;18.00;99.90;;;;;;5071380;28;20037;-60
2023/06/22 02:55:58;;;;;;;21.00;18.48;;;17.90;99.90;;;;;;5071520;28;20122;-60
2023/06/22 02:58:24;;;;;;;24.70;19.98;;;18.00;99.90;;;;;;5071694;28;20469;-60
2023/06/22 03:00:52;;;;;;;25.05;20.13;;;18.00;99.90;;;;;;5071554;28;20064;-60
2023/06/22 03:03:21;;;;;;;20.70;18.48;;;17.90;99.90;;;;;;5071385;28;20036;-60
2023/06/22 03:05:47;;;;;;;21.42;18.77;;;18.00;99.90;;;;;;5071438;28;20043;-60
2023/06/22 03:08:12;;;;;;;22.73;18.90;;;18.00;99.90;;;;;;5071093;28;20024;-61
2023/06/22 03:10:38;;;;;;;21.67;19.10;;;17.90;99.90;;;;;;5071443;28;20502;-60
2023/06/22 03:13:04;;;;;;;24.63;18.23;;;17.90;99.90;;;;;;5071536;28;20076;-60
2023/06/22 03:15:31;;;;;;;22.00;18.35;;;17.80;99.90;;;;;;5071489;28;20040;-60
2023/06/22 03:17:57;;;;;;;21.20;17.92;;;17.80;99.90;;;;;;5070095;28;20044;-60
2023/06/22 03:20:23;;;;;;;21.30;18.52;;;17.70;99.90;;;;;;5071187;28;20044;-60
2023/06/22 03:22:48;;;;;;;20.98;17.15;;;17.80;99.90;;;;;;5071180;28;20040;-60
2023/06/22 03:25:14;;;;;;;24.10;18.42;;;17.90;99.90;;;;;;5071199;28;20483;-60
2023/06/22 03:27:41;;;;;;;21.50;19.15;;;17.90;99.90;;;;;;5071498;28;20502;-60
2023/06/22 03:30:09;;;;;;;21.40;18.08;;;17.80;99.90;;;;;;5071040;28;20107;-60
2023/06/22 03:32:35;;;;;;;28.30;22.38;;;17.80;99.90;;;;;;5071189;28;20538;-60
2023/06/22 03:35:01;;;;;;;26.85;23.02;;;17.70;99.90;;;;;;5071191;28;20075;-60
2023/06/22 03:37:27;;;;;;;24.27;20.88;;;17.70;99.90;;;;;;5070922;28;20045;-60
2023/06/22 03:39:53;;;;;;;23.92;19.63;;;17.80;99.90;;;;;;5071247;28;20044;-60
2023/06/22 03:42:19;;;;;;;24.10;20.88;;;17.90;99.90;;;;;;5070942;28;20363;-60
2023/06/22 03:44:45;;;;;;;23.02;18.92;;;17.90;99.90;;;;;;5072680;28;20036;-60
2023/06/22 03:47:10;;;;;;;24.05;21.45;;;17.90;99.90;;;;;;5060985;28;20068;-60
2023/06/22 03:49:36;;;;;;;25.25;22.55;;;17.80;99.90;;;;;;5075089;28;20047;-60
2023/06/22 03:52:03;;;;;;;26.02;21.90;;;17.70;99.90;;;;;;5074538;28;20397;-60
2023/06/22 03:54:29;;;;;;;26.95;23.85;;;17.70;99.90;;;;;;5074763;28;20489;-60
2023/06/22 03:56:57;;;;;;;22.95;20.58;;;17.90;99.90;;;;;;5074708;28;20052;-60
2023/06/22 03:59:22;;;;;;;23.88;21.27;;;17.90;99.90;;;;;;5074686;28;20044;-61
2023/06/22 04:01:48;;;;;;;27.38;23.20;;;17.80;99.90;;;;;;5074412;28;20455;-60
2023/06/22 04:04:14;;;;;;;29.25;23.73;;;17.90;99.90;;;;;;5074502;28;20033;-60
2023/06/22 04:06:40;;;;;;;25.30;22.00;;;17.80;99.90;;;;;;5074432;28;20116;-60
2023/06/22 04:09:08;;;;;;;26.63;21.80;;;17.80;99.90;;;;;;5073155;28;20070;-60
2023/06/22 04:11:34;;;;;;;;;;;17.80;99.90;;;;;;5074889;28;20048;-60
2023/06/22 04:14:00;;;;;;;26.98;23.88;;;18.00;99.90;;;;;;5074384;28;19916;-60
2023/06/22 04:16:25;;;;;;;28.65;23.27;;;17.90;99.90;;;;;;5072980;28;20119;-60
2023/06/22 04:18:51;;;;;;;27.92;24.60;;;18.00;99.90;;;;;;5072745;28;20052;-60
2023/06/22 04:21:17;;;;;;;33.65;28.13;;;18.00;99.90;;;;;;5074378;28;20444;-60
2023/06/22 04:23:43;;;;;;;31.65;24.83;;;17.90;99.90;;;;;;5074260;28;20044;-60
2023/06/22 04:26:09;;;;;;;31.55;25.08;;;18.10;99.90;;;;;;5074142;28;20105;-60
2023/06/22 04:28:35;;;;;;;28.55;24.88;;;18.20;99.90;;;;;;5074343;28;20044;-60
2023/06/22 04:31:04;;;;;;;29.00;24.60;;;18.20;99.90;;;;;;5073093;28;20466;-60
2023/06/22 04:33:30;;;;;;;28.52;25.52;;;18.10;99.90;;;;;;5072892;28;20517;-60
2023/06/22 04:36:00;;;;;;;26.17;23.48;;;18.30;99.90;;;;;;5074299;28;20040;-60
2023/06/22 04:38:27;;;;;;;23.33;21.00;;;18.30;99.90;;;;;;5074058;28;20068;-60
2023/06/22 04:40:53;;;;;;;27.70;24.25;;;18.30;99.90;;;;;;5074209;28;20055;-60
2023/06/22 04:43:19;;;;;;;27.92;24.50;;;18.40;99.90;;;;;;5073508;28;20044;-60
2023/06/22 04:45:45;;;;;;;26.60;23.73;;;18.30;99.90;;;;;;5066456;28;20048;-61
2023/06/22 04:48:15;;;;;;;27.48;24.42;;;18.50;99.90;;;;;;5065668;28;20036;-60
2023/06/22 04:50:41;;;;;;;34.38;27.55;;;18.40;99.90;;;;;;5073789;28;20045;-60
2023/06/22 04:53:09;;;;;;;32.80;28.50;;;18.60;99.90;;;;;;5073671;28;20486;-60
2023/06/22 04:55:37;;;;;;;33.60;28.15;;;18.60;99.90;;;;;;5059663;28;20040;-60
2023/06/22 04:58:04;;;;;;;29.48;24.70;;;18.60;99.90;;;;;;5073505;28;20049;-61
2023/06/22 05:00:30;;;;;;;33.97;26.95;;;18.70;99.90;;;;;;5072699;28;20383;-61
2023/06/22 05:02:57;;;;;;;31.85;27.67;;;18.80;99.90;;;;;;5073633;28;20040;-60
2023/06/22 05:05:23;;;;;;;35.05;28.85;;;19.00;99.90;;;;;;5073310;28;20040;-60
2023/06/22 05:07:52;;;;;;;32.40;27.33;;;19.00;99.90;;;;;;5072488;28;20044;-60
2023/06/22 05:10:19;;;;;;;32.78;26.55;;;19.20;99.90;;;;;;5073338;28;20090;-60
2023/06/22 05:12:46;;;;;;;35.63;28.75;;;19.40;99.90;;;;;;5073265;28;20055;-60
2023/06/22 05:15:12;;;;;;;31.30;26.35;;;19.40;99.90;;;;;;5072085;28;20075;-60
2023/06/22 05:17:42;;;;;;;31.23;26.02;;;19.50;99.90;;;;;;5073201;28;20046;-60
2023/06/22 05:20:10;;;;;;;29.45;24.67;;;19.70;99.90;;;;;;5073180;28;20048;-60
2023/06/22 05:22:35;;;;;;;29.73;26.48;;;19.80;99.90;;;;;;5073254;28;20040;-60
2023/06/22 05:25:01;;;;;;;30.63;25.73;;;19.90;99.90;;;;;;5073125;28;20057;-60
2023/06/22 05:27:27;;;;;;;30.95;26.25;;;20.00;99.90;;;;;;5072923;28;20041;-60
2023/06/22 05:29:52;;;;;;;30.73;23.98;;;20.00;99.90;;;;;;5072894;28;20064;-60
2023/06/22 05:32:18;;;;;;;30.75;26.48;;;20.10;99.90;;;;;;5073038;28;20123;-60
2023/06/22 05:34:44;;;;;;;29.88;23.48;;;20.40;99.90;;;;;;5073002;28;20124;-60
2023/06/22 05:37:10;;;;;;;32.03;24.95;;;20.50;99.90;;;;;;5071534;28;20443;-60
2023/06/22 05:39:37;;;;;;;29.77;24.30;;;20.60;99.90;;;;;;5072881;28;20037;-60
2023/06/22 05:42:05;;;;;;;27.35;22.77;;;20.70;99.90;;;;;;5072724;28;20059;-60
2023/06/22 05:44:31;;;;;;;31.00;24.08;;;20.70;99.90;;;;;;5072503;28;20043;-59
2023/06/22 05:46:56;;;;;;;24.05;21.58;;;20.90;99.90;;;;;;5058663;28;20041;-60
2023/06/22 05:49:23;;;;;;;24.95;19.55;;;20.90;99.90;;;;;;5072635;28;20371;-60
2023/06/22 05:51:48;;;;;;;20.63;18.38;;;20.90;99.90;;;;;;5072587;28;20036;-60
2023/06/22 05:54:15;;;;;;;23.08;18.05;;;20.80;99.90;;;;;;5072753;28;20043;-60
2023/06/22 05:56:41;;;;;;;21.17;18.83;;;20.80;99.90;;;;;;5072639;28;20111;-60
2023/06/22 05:59:06;;;;;;;19.20;15.73;;;21.00;99.90;;;;;;5072589;28;20583;-59
2023/06/22 06:01:35;;;;;;;26.08;18.50;;;21.20;99.90;;;;;;5072362;28;20482;-60
2023/06/22 06:04:03;;;;;;;20.63;17.27;;;21.20;99.90;;;;;;5072662;28;20044;-60
2023/06/22 06:06:29;;;;;;;17.87;15.23;;;21.40;99.90;;;;;;5071882;28;20486;-59
2023/06/22 06:08:56;;;;;;;21.58;18.23;;;21.40;99.90;;;;;;5072201;28;20333;-60
2023/06/22 06:11:22;;;;;;;20.40;15.50;;;21.50;99.90;;;;;;5072493;28;20036;-60
2023/06/22 06:13:47;;;;;;;17.48;15.63;;;21.60;99.90;;;;;;5072181;28;20105;-60
2023/06/22 06:16:13;;;;;;;19.63;15.93;;;21.80;99.90;;;;;;5072113;28;20139;-60
2023/06/22 06:18:39;;;;;;;18.02;14.38;;;22.00;99.90;;;;;;5072117;28;20036;-60
2023/06/22 06:21:04;;;;;;;18.80;15.98;;;22.20;99.90;;;;;;5071902;28;20040;-60
2023/06/22 06:23:30;;;;;;;22.08;13.63;;;22.30;99.90;;;;;;5071954;28;20379;-60
2023/06/22 06:25:56;;;;;;;18.13;13.95;;;22.20;99.90;;;;;;5070465;28;20487;-60
2023/06/22 06:28:22;;;;;;;16.40;14.50;;;22.50;99.90;;;;;;5071980;28;20033;-59
2023/06/22 06:30:47;;;;;;;15.00;13.02;;;22.60;99.90;;;;;;5071913;28;20096;-60
2023/06/22 06:33:13;;;;;;;17.15;14.13;;;22.60;99.90;;;;;;5071602;28;20119;-60
2023/06/22 06:35:39;;;;;;;15.68;14.07;;;22.70;99.90;;;;;;5071895;28;20051;-60
2023/06/22 06:38:05;;;;;;;14.25;12.77;;;22.70;99.90;;;;;;5070336;28;20037;-60
2023/06/22 06:40:30;;;;;;;15.32;12.98;;;22.50;99.90;;;;;;5070441;28;20049;-60
2023/06/22 06:42:56;;;;;;;18.35;12.35;;;22.80;99.90;;;;;;5071477;28;20037;-60
2023/06/22 06:45:23;;;;;;;14.18;12.57;;;23.10;99.90;;;;;;5068697;28;20029;-60
2023/06/22 06:47:50;;;;;;;19.20;13.57;;;23.20;99.90;;;;;;5033381;28;20060;-60
2023/06/22 06:50:16;;;;;;;15.50;13.63;;;23.50;99.90;;;;;;5071697;28;20033;-59
2023/06/22 06:52:42;;;;;;;16.70;12.88;;;23.30;99.90;;;;;;5071543;28;20037;-60
2023/06/22 06:55:11;;;;;;;16.95;13.50;;;23.50;99.90;;;;;;5071538;28;20104;-60
2023/06/22 06:57:38;;;;;;;14.07;12.65;;;23.70;99.90;;;;;;5071614;28;20051;-61
2023/06/22 07:00:09;;;;;;;18.92;15.40;;;23.90;99.90;;;;;;5070378;28;20391;-60
2023/06/22 07:02:35;;;;;;;14.95;13.32;;;23.70;99.90;;;;;;5071574;28;20405;-60
2023/06/22 07:05:03;;;;;;;13.90;12.52;;;23.80;99.90;;;;;;5071350;28;20036;-60
2023/06/22 07:07:29;;;;;;;16.15;13.75;;;23.90;99.90;;;;;;5071498;28;20052;-60
2023/06/22 07:09:54;;;;;;;15.85;13.40;;;23.70;99.90;;;;;;5071279;28;20051;-60
2023/06/22 07:12:20;;;;;;;14.32;12.80;;;23.90;99.90;;;;;;5071417;28;20119;-60
2023/06/22 07:14:46;;;;;;;12.25;10.43;;;24.40;99.90;;;;;;5071536;28;20072;-60
2023/06/22 07:17:12;;;;;;;14.90;10.90;;;24.80;99.90;;;;;;5071201;28;20078;-60
2023/06/22 07:19:38;;;;;;;12.90;10.57;;;25.20;99.90;;;;;;5074673;28;20051;-60
2023/06/22 07:22:04;;;;;;;15.93;11.38;;;25.40;99.90;;;;;;5075581;28;20145;-60
2023/06/22 07:24:30;;;;;;;11.95;9.82;;;25.60;99.90;;;;;;5075303;28;20036;-60
2023/06/22 07:26:57;;;;;;;11.48;8.60;;;25.40;99.90;;;;;;5075443;28;20428;-60
2023/06/22 07:29:23;;;;;;;14.70;10.35;;;25.60;99.90;;;;;;5075421;28;20037;-61
2023/06/22 07:31:51;;;;;;;12.60;9.57;;;25.60;99.90;;;;;;5075369;28;20036;-60
2023/06/22 07:34:17;;;;;;;11.27;9.35;;;25.90;99.90;;;;;;5075101;28;20047;-60
2023/06/22 07:36:43;;;;;;;9.75;7.50;;;26.40;99.90;;;;;;5075199;28;20046;-60
2023/06/22 07:39:09;;;;;;;11.07;7.97;;;26.70;99.90;;;;;;5075049;28;20474;-60
2023/06/22 07:41:34;;;;;;;11.52;8.52;;;26.70;99.90;;;;;;5075080;28;20037;-60
2023/06/22 07:44:03;;;;;;;9.88;8.30;;;26.60;99.90;;;;;;5074953;28;20041;-60
2023/06/22 07:46:30;;;;;;;;;;;26.50;99.90;;;;;;5063346;28;20045;-61
2023/06/22 07:48:56;;;;;;;9.30;7.18;;;27.00;99.90;;;;;;5073026;28;19920;-60
2023/06/22 07:51:22;;;;;;;9.65;7.75;;;27.10;99.90;;;;;;5074869;28;20033;-61
2023/06/22 07:53:47;;;;;;;9.65;8.75;;;27.20;99.90;;;;;;5075160;28;20596;-60
2023/06/22 07:56:13;;;;;;;10.05;8.43;;;27.10;99.90;;;;;;5074945;28;20047;-61
2023/06/22 07:58:39;;;;;;;9.38;7.50;;;27.30;99.90;;;;;;5073193;28;20501;-61
2023/06/22 08:01:06;;;;;;;8.23;7.15;;;27.20;99.90;;;;;;5074751;28;20123;-61
2023/06/22 08:03:32;;;;;;;8.35;6.85;;;27.50;99.90;;;;;;5074613;28;20507;-61
2023/06/22 08:05:58;;;;;;;8.40;7.38;;;27.40;99.90;;;;;;5074466;28;20112;-60
2023/06/22 08:08:24;;;;;;;7.28;6.55;;;27.70;99.90;;;;;;5074496;28;20174;-61
2023/06/22 08:10:49;;;;;;;7.85;5.78;;;27.90;99.90;;;;;;5074387;28;20414;-61
2023/06/22 08:13:15;;;;;;;6.75;5.15;;;28.40;99.90;;;;;;5074505;28;20056;-62
2023/06/22 08:15:41;;;;;;;6.38;5.78;;;28.60;99.90;;;;;;5074446;28;20040;-61
2023/06/22 08:18:06;;;;;;;8.85;5.60;;;28.50;99.90;;;;;;5074425;28;20044;-61
2023/06/22 08:20:32;;;;;;;10.23;5.85;;;28.50;99.90;;;;;;5074389;28;20149;-61
2023/06/22 08:23:00;;;;;;;6.32;4.93;;;28.60;99.90;;;;;;5074456;28;20040;-61
2023/06/22 08:25:26;;;;;;;6.13;5.07;;;28.50;99.90;;;;;;5072823;28;20056;-61
2023/06/22 08:27:52;;;;;;;7.22;5.00;;;28.50;99.90;;;;;;5074598;28;20143;-61
2023/06/22 08:30:20;;;;;;;8.80;5.07;;;28.60;99.90;;;;;;5073623;28;20041;-62
2023/06/22 08:32:46;;;;;;;6.22;5.13;;;29.00;99.90;;;;;;5074337;28;20437;-61
2023/06/22 08:35:12;;;;;;;10.23;5.45;;;29.40;99.90;;;;;;5074105;28;20044;-61
2023/06/22 08:37:39;;;;;;;7.22;5.40;;;29.60;99.90;;;;;;5073967;28;20040;-60
2023/06/22 08:40:08;;;;;;;5.68;4.50;;;29.90;99.90;;;;;;5074210;28;20044;-61
2023/06/22 08:42:34;;;;;;;8.80;6.07;;;29.80;99.90;;;;;;5073111;28;20044;-62
2023/06/22 08:45:00;;;;;;;5.90;4.80;;;29.80;99.90;;;;;;5074032;28;20133;-61
2023/06/22 08:47:27;;;;;;;8.52;5.55;;;30.20;99.90;;;;;;5059729;28;20036;-61
2023/06/22 08:49:53;;;;;;;11.93;4.32;;;30.30;99.70;;;;;;5073868;28;20033;-60
2023/06/22 08:52:20;;;;;;;10.13;4.95;;;30.50;99.70;;;;;;5073814;28;20102;-60
2023/06/22 08:54:46;;;;;;;5.03;4.47;;;30.70;99.40;;;;;;5073870;28;20110;-61
2023/06/22 08:57:12;;;;;;;5.97;3.78;;;30.70;99.00;;;;;;5071360;28;20099;-61
2023/06/22 08:59:37;;;;;;;4.38;3.97;;;31.10;98.80;;;;;;5061926;28;20036;-61
2023/06/22 09:02:03;;;;;;;7.50;4.95;;;31.60;99.30;;;;;;5073460;28;20041;-62
2023/06/22 09:04:29;;;;;;;5.75;4.30;;;31.30;98.40;;;;;;5073352;28;20041;-61
2023/06/22 09:06:54;;;;;;;5.40;4.13;;;31.30;98.70;;;;;;5073468;28;20036;-62
2023/06/22 09:09:21;;;;;;;6.22;5.10;;;31.50;98.50;;;;;;5073285;28;20036;-62
2023/06/22 09:11:47;;;;;;;8.00;5.75;;;31.30;97.70;;;;;;5073717;28;20029;-61
2023/06/22 09:14:13;;;;;;;7.15;5.15;;;30.90;98.00;;;;;;5073189;28;20036;-62
2023/06/22 09:16:39;;;;;;;6.38;5.47;;;30.80;98.50;;;;;;5073461;28;20033;-61
2023/06/22 09:19:04;;;;;;;7.50;5.32;;;31.30;98.30;;;;;;5073495;28;20679;-62
2023/06/22 09:21:30;;;;;;;8.68;6.10;;;31.50;98.30;;;;;;5073371;28;20041;-62
2023/06/22 09:23:56;;;;;;;6.82;5.70;;;32.00;98.00;;;;;;5073171;28;20045;-61
2023/06/22 09:26:23;;;;;;;8.18;6.00;;;32.00;98.10;;;;;;5072803;28;20045;-62
2023/06/22 09:28:49;;;;;;;10.57;7.13;;;32.30;98.00;;;;;;5073092;28;20498;-62
2023/06/22 09:31:16;;;;;;;8.88;6.15;;;31.70;96.90;;;;;;5072817;28;20036;-63
2023/06/22 09:33:42;;;;;;;8.68;6.50;;;31.80;97.70;;;;;;5072997;28;20036;-62
2023/06/22 09:36:08;;;;;;;10.93;6.28;;;31.90;97.90;;;;;;5072819;28;20398;-61
2023/06/22 09:38:38;;;;;;;8.57;6.43;;;32.10;97.80;;;;;;5073344;28;20079;-61
2023/06/22 09:41:04;;;;;;;6.20;5.60;;;31.80;97.70;;;;;;5072668;28;20044;-62
2023/06/22 09:43:32;;;;;;;9.30;6.40;;;32.40;98.20;;;;;;5071880;28;20460;-62
2023/06/22 09:45:57;;;;;;;8.90;6.25;;;32.80;97.80;;;;;;5064913;28;20117;-61
2023/06/22 09:48:23;;;;;;;8.32;6.25;;;33.20;97.00;;;;;;5066680;28;20116;-61
2023/06/22 09:50:49;;;;;;;9.55;6.80;;;33.00;97.10;;;;;;5072953;28;20044;-61
2023/06/22 09:53:14;;;;;;;7.95;5.95;;;31.90;97.00;;;;;;5072797;28;20565;-61
2023/06/22 09:55:40;;;;;;;7.63;5.13;;;32.00;97.50;;;;;;5072511;28;20034;-62
2023/06/22 09:58:06;;;;;;;7.60;6.57;;;32.00;97.70;;;;;;5072396;28;20474;-62
2023/06/22 10:00:31;;;;;;;17.85;6.22;;;32.30;96.90;;;;;;5072200;28;20078;-62
2023/06/22 10:02:57;;;;;;;7.88;6.03;;;31.50;97.40;;;;;;5072102;28;20048;-62
2023/06/22 10:05:23;;;;;;;9.63;7.43;;;31.80;98.10;;;;;;5072374;28;20032;-62
2023/06/22 10:07:49;;;;;;;7.18;5.43;;;31.70;96.90;;;;;;5072271;28;20032;-62
2023/06/22 10:10:15;;;;;;;9.50;6.63;;;32.10;98.10;;;;;;5072156;28;20490;-62
2023/06/22 10:13:10;;;;;;;7.30;6.57;;;31.70;97.30;;;;;;5072118;28;20394;-62
2023/06/22 10:15:37;;;;;;;6.40;5.70;;;32.30;97.60;;;;;;5071368;28;20524;-61
2023/06/22 10:18:04;;;;;;;6.57;5.57;;;32.20;96.80;;;;;;5071960;28;20036;-61
2023/06/22 10:20:31;;;;;;;8.77;6.13;;;31.40;97.60;;;;;;5071848;28;20040;-62
2023/06/22 10:22:57;;;;;;;6.25;5.60;;;31.60;98.00;;;;;;5071946;28;20041;-61
2023/06/22 10:25:23;;;;;;;7.88;4.63;;;32.20;97.40;;;;;;5071604;28;20052;-61
2023/06/22 10:27:49;;;;;;;8.20;6.43;;;31.50;98.00;;;;;;5071805;28;20036;-62
2023/06/22 10:30:17;;;;;;;7.80;6.15;;;31.70;97.40;;;;;;5072158;28;20040;-62
2023/06/22 10:32:44;;;;;;;9.57;6.18;;;31.60;97.30;;;;;;5071740;28;20040;-61
2023/06/22 10:35:16;;;;;;;6.10;5.25;;;31.10;97.60;;;;;;5071897;28;20033;-62
2023/06/22 10:37:45;;;;;;;6.97;5.53;;;31.60;98.00;;;;;;5071900;28;20036;-61
2023/06/22 10:40:16;;;;;;;7.75;4.50;;;31.90;97.80;;;;;;5071757;28;20044;-62
2023/06/22 10:42:43;;;;;;;7.32;6.05;;;32.20;97.70;;;;;;5071407;28;20109;-61
2023/06/22 10:45:17;;;;;;;6.03;5.43;;;32.00;97.30;;;;;;5071007;28;20067;-61
2023/06/22 10:47:45;;;;;;;7.82;5.75;;;31.80;96.90;;;;;;5063326;28;20040;-61
2023/06/22 10:50:12;;;;;;;9.48;5.60;;;32.40;97.20;;;;;;5050106;28;20045;-61
2023/06/22 10:52:38;;;;;;;;;;;32.80;97.10;;;;;;5051669;28;20520;-62
2023/06/22 10:55:05;;;;;;;6.93;6.22;;;32.80;97.50;;;;;;5064158;28;19916;-62
2023/06/22 10:57:31;;;;;;;6.40;5.60;;;32.60;96.60;;;;;;5066542;28;20044;-62
2023/06/22 10:59:58;;;;;;;8.13;6.20;;;32.50;96.30;;;;;;5065565;28;20065;-62
2023/06/22 11:02:24;;;;;;;8.75;4.88;;;32.00;96.30;;;;;;5071203;28;20109;-62
2023/06/22 11:04:50;;;;;;;6.47;5.90;;;32.30;96.50;;;;;;5071535;28;20537;-62
2023/06/22 11:07:16;;;;;;;6.60;4.95;;;32.20;96.50;;;;;;5071167;28;20378;-61
2023/06/22 11:09:46;;;;;;;5.85;5.32;;;31.90;96.90;;;;;;5071385;28;20032;-62
2023/06/22 11:12:12;;;;;;;6.13;4.40;;;32.00;96.50;;;;;;5071449;28;20037;-61
2023/06/22 11:14:40;;;;;;;6.53;4.85;;;32.30;96.50;;;;;;5071417;28;20044;-62
2023/06/22 11:17:06;;;;;;;11.80;5.63;;;32.90;96.70;;;;;;5071440;28;20489;-62
2023/06/22 11:19:33;;;;;;;6.55;5.13;;;32.60;96.20;;;;;;5071211;28;20086;-61
2023/06/22 11:21:59;;;;;;;5.85;5.22;;;32.70;96.30;;;;;;5071094;28;20127;-61
2023/06/22 11:24:25;;;;;;;6.65;4.10;;;32.60;96.40;;;;;;5069818;28;20116;-61
2023/06/22 11:26:52;;;;;;;6.88;6.10;;;32.70;96.50;;;;;;5071044;28;20048;-62
2023/06/22 11:29:19;;;;;;;7.07;5.25;;;32.40;95.90;;;;;;5069909;28;20048;-62
2023/06/22 11:31:45;;;;;;;5.73;4.80;;;31.90;96.30;;;;;;5071342;28;20398;-62
2023/06/22 11:34:11;;;;;;;6.20;5.55;;;31.50;96.70;;;;;;5071275;28;20041;-62
2023/06/22 11:36:37;;;;;;;7.35;4.93;;;31.10;97.00;;;;;;5070889;28;20094;-62
2023/06/22 11:39:04;;;;;;;6.10;4.90;;;31.10;97.20;;;;;;5071251;28;20043;-62
2023/06/22 11:41:30;;;;;;;5.15;4.65;;;31.20;97.20;;;;;;5071123;28;20040;-62
2023/06/22 11:43:57;;;;;;;6.80;4.68;;;30.90;97.30;;;;;;5071118;28;20048;-62
2023/06/22 11:46:23;;;;;;;6.85;5.25;;;31.00;97.40;;;;;;5059609;28;20048;-62
2023/06/22 11:48:51;;;;;;;5.43;4.22;;;31.10;97.10;;;;;;5068243;28;20458;-62
2023/06/22 11:51:18;;;;;;;6.00;5.20;;;31.20;97.30;;;;;;5069635;28;20188;-62
2023/06/22 11:53:44;;;;;;;7.20;4.55;;;30.90;97.20;;;;;;5071011;28;20037;-62
2023/06/22 11:56:11;;;;;;;9.75;4.95;;;31.10;97.40;;;;;;5052784;28;20383;-61
2023/06/22 11:58:39;;;;;;;9.63;5.40;;;30.90;97.70;;;;;;5070506;28;20044;-62
2023/06/22 12:01:05;;;;;;;;;;;30.70;97.40;;;;;;5071625;28;20040;-61
2023/06/22 12:03:32;;;;;;;6.43;5.82;;;30.60;97.60;;;;;;5070687;28;19921;-62
2023/06/22 12:05:58;;;;;;;8.40;5.47;;;30.40;97.80;;;;;;5072442;28;20064;-61
2023/06/22 12:08:25;;;;;;;7.55;5.32;;;30.20;98.70;;;;;;5074525;28;20441;-61
2023/06/22 12:10:53;;;;;;;11.25;5.95;;;29.80;99.30;;;;;;5074229;28;20032;-61
2023/06/22 12:13:21;;;;;;;5.80;5.20;;;29.80;99.70;;;;;;5073172;28;20084;-61
2023/06/22 12:15:48;;;;;;;6.07;5.47;;;29.70;99.20;;;;;;5074284;28;20102;-61
2023/06/22 12:18:20;;;;;;;10.65;5.80;;;29.50;98.90;;;;;;5073982;28;20468;-62
2023/06/22 12:20:47;;;;;;;9.60;6.57;;;29.50;99.10;;;;;;5074123;28;20173;-60
2023/06/22 12:23:15;;;;;;;7.15;4.93;;;29.20;99.20;;;;;;5072981;28;20049;-60
2023/06/22 12:25:43;;;;;;;5.97;4.93;;;29.10;99.90;;;;;;5072528;28;20162;-59
2023/06/22 12:28:37;;;;;;;5.43;4.82;;;29.20;99.90;;;;;;5074070;28;20482;-59
2023/06/22 12:31:03;;;;;;;6.10;5.35;;;29.20;99.90;;;;;;5072999;28;20036;-59
2023/06/22 12:33:32;;;;;;;6.68;4.90;;;28.70;99.90;;;;;;5072776;28;20121;-60
2023/06/22 12:36:01;;;;;;;7.18;5.05;;;28.90;99.90;;;;;;5073910;28;20394;-62